CheckWX is a tool to help pilots better visualize weather data.  It is not intended as a substitute for an official pre-flight weather briefing.

17:57:48 UTC

KTOI TAF
Troy Municipal at N Kenneth Campbell Field Airport
Troy, Alabama, USA
KTOI 241720Z 2418/2518 19008KT P6SM BKN250 FM250000 21002KT P6SM FEW250 FM251500 24007KT P6SM BKN080

Mar-24@
18:00 UTC

Mar-24 @ 18:00 UTC

Mar-25@
00:00 UTC

Mar-25 @ 00:00 UTC

KTOI 241720Z 2418/2518 19008KT P6SM BKN250
Wind
  • 190° at 8 KTS
Cloud Levels
  • Broken at 25,000' AGL

Mar-25@
00:00 UTC

Mar-25 @ 00:00 UTC

Mar-25@
15:00 UTC

Mar-25 @ 15:00 UTC

FM250000 21002KT P6SM FEW250

From

From Standard forecast or significant change

Wind
  • 210° at 2 KTS
Cloud Levels
  • Few at 25,000' AGL

Mar-25@
15:00 UTC

Mar-25 @ 15:00 UTC

Mar-25@
18:00 UTC

Mar-25 @ 18:00 UTC

FM251500 24007KT P6SM BKN080

From

From Standard forecast or significant change

Wind
  • 240° at 7 KTS
Cloud Levels
  • Broken at 8,000' AGL